createdAt,value
2022-11-23T00:00:37.756Z,34.98
2022-11-23T00:03:05.686Z,34.94
2022-11-23T00:05:35.328Z,35.07
2022-11-23T00:08:03.256Z,34.81
2022-11-23T00:10:31.124Z,35.00
2022-11-23T00:12:58.985Z,34.84
2022-11-23T00:15:27.156Z,34.83
2022-11-23T00:17:55.014Z,34.78
2022-11-23T00:20:22.868Z,34.89
2022-11-23T00:22:52.175Z,34.93
2022-11-23T00:25:20.122Z,34.85
2022-11-23T00:27:47.951Z,34.88
2022-11-23T00:30:16.642Z,34.84
2022-11-23T00:32:44.602Z,34.84
2022-11-23T00:35:12.523Z,34.95
2022-11-23T00:37:40.387Z,34.91
2022-11-23T00:40:11.237Z,34.84
2022-11-23T00:42:39.123Z,34.85
2022-11-23T00:45:10.525Z,34.91
2022-11-23T00:47:38.740Z,34.86
2022-11-23T00:50:07.427Z,34.92
2022-11-23T00:52:35.304Z,34.72
2022-11-23T00:55:03.443Z,34.91
2022-11-23T00:57:34.111Z,34.85
2022-11-23T01:00:02.046Z,34.74
2022-11-23T01:02:29.981Z,35.05
2022-11-23T01:04:58.105Z,34.83
2022-11-23T01:07:26.020Z,34.61
2022-11-23T01:09:54.006Z,34.75
2022-11-23T01:12:21.834Z,34.71
2022-11-23T01:14:51.802Z,34.90
2022-11-23T01:17:19.680Z,34.92
2022-11-23T01:19:47.738Z,35.26
2022-11-23T01:22:15.617Z,34.81
2022-11-23T01:24:44.582Z,34.66
2022-11-23T01:27:12.494Z,34.81
2022-11-23T01:29:40.336Z,34.82
2022-11-23T01:32:09.599Z,34.85
2022-11-23T01:34:37.444Z,34.84
2022-11-23T01:37:05.607Z,34.75
2022-11-23T01:39:33.859Z,34.76
2022-11-23T01:42:01.906Z,35.13
2022-11-23T01:44:30.427Z,35.02
2022-11-23T01:46:59.205Z,34.87
2022-11-23T01:49:31.474Z,35.08
2022-11-23T01:52:00.464Z,34.69
2022-11-23T01:54:29.841Z,34.76
2022-11-23T01:57:00.394Z,34.85
2022-11-23T01:59:28.478Z,34.97
2022-11-23T02:01:56.614Z,34.71
2022-11-23T02:04:25.482Z,34.74
2022-11-23T02:06:55.206Z,34.97
2022-11-23T02:09:23.153Z,34.71
2022-11-23T02:11:51.049Z,34.96
2022-11-23T02:14:23.358Z,34.93
2022-11-23T02:16:51.856Z,34.93
2022-11-23T02:19:24.756Z,34.76
2022-11-23T02:21:54.036Z,34.73
2022-11-23T02:24:24.595Z,34.80
2022-11-23T02:26:53.904Z,34.75
2022-11-23T02:29:22.972Z,34.81
2022-11-23T02:31:50.852Z,34.88
2022-11-23T02:34:18.936Z,34.96
2022-11-23T02:36:47.593Z,34.62
2022-11-23T02:39:16.941Z,34.79
2022-11-23T02:41:45.609Z,34.85
2022-11-23T02:44:27.382Z,34.79
2022-11-23T02:46:55.297Z,34.77
2022-11-23T02:49:23.459Z,34.62
2022-11-23T02:51:51.379Z,34.66
2022-11-23T02:54:19.278Z,34.81
2022-11-23T02:56:47.483Z,34.83
2022-11-23T02:59:15.342Z,35.00
2022-11-23T03:01:46.827Z,34.68
2022-11-23T03:04:14.715Z,34.76
2022-11-23T03:06:42.892Z,34.93
2022-11-23T03:09:10.994Z,34.88
2022-11-23T03:11:38.874Z,34.59
2022-11-23T03:14:06.788Z,34.80
2022-11-23T03:16:35.009Z,34.74
2022-11-23T03:19:04.265Z,34.75
2022-11-23T03:21:32.145Z,34.76
2022-11-23T03:24:00.066Z,34.71
2022-11-23T03:26:28.249Z,34.85
2022-11-23T03:28:56.100Z,34.76
2022-11-23T03:31:23.974Z,34.89
2022-11-23T03:33:51.865Z,34.68
2022-11-23T03:36:21.479Z,34.80
2022-11-23T03:38:49.412Z,34.75
2022-11-23T03:41:17.324Z,34.68
2022-11-23T03:43:45.223Z,34.88
2022-11-23T03:46:13.395Z,34.71
2022-11-23T03:48:41.273Z,34.89
2022-11-23T03:51:09.135Z,34.85
2022-11-23T03:53:38.454Z,34.80
2022-11-23T03:56:07.011Z,34.82
2022-11-23T03:58:34.868Z,34.77
2022-11-23T04:01:02.938Z,34.84
2022-11-23T04:03:30.829Z,34.94
2022-11-23T04:05:58.982Z,34.69
2022-11-23T04:08:26.914Z,34.88
2022-11-23T04:10:58.834Z,35.02
2022-11-23T04:13:26.712Z,34.80
2022-11-23T04:15:54.893Z,34.87
2022-11-23T04:18:22.742Z,34.67
2022-11-23T04:20:50.636Z,34.75
2022-11-23T04:23:18.530Z,35.03
2022-11-23T04:25:46.697Z,34.83
2022-11-23T04:28:15.960Z,34.89
2022-11-23T04:30:43.848Z,34.77
2022-11-23T04:33:11.712Z,34.81
2022-11-23T04:35:39.852Z,34.79
2022-11-23T04:38:07.733Z,34.84
2022-11-23T04:40:35.609Z,34.93
2022-11-23T04:43:03.525Z,34.98
2022-11-23T04:45:33.096Z,34.87
2022-11-23T04:48:00.967Z,34.81
2022-11-23T04:50:28.844Z,34.76
2022-11-23T04:52:56.789Z,34.92
2022-11-23T04:55:24.907Z,34.97
2022-11-23T04:57:52.754Z,34.80
2022-11-23T05:00:21.029Z,34.76
2022-11-23T05:02:50.294Z,34.94
2022-11-23T05:05:18.597Z,34.99
2022-11-23T05:07:46.516Z,34.81
2022-11-23T05:10:14.474Z,34.79
2022-11-23T05:12:42.328Z,34.86
2022-11-23T05:15:14.323Z,34.74
2022-11-23T05:17:42.223Z,34.86
2022-11-23T05:20:12.641Z,34.97
2022-11-23T05:22:40.532Z,34.94
2022-11-23T05:25:09.223Z,34.73
2022-11-23T05:27:37.129Z,34.85
2022-11-23T05:30:08.047Z,34.81
2022-11-23T05:32:35.975Z,34.97
2022-11-23T05:35:04.195Z,35.08
2022-11-23T05:37:34.448Z,34.88
2022-11-23T05:40:02.409Z,34.93
2022-11-23T05:42:30.283Z,34.88
2022-11-23T05:44:58.461Z,34.80
2022-11-23T05:47:26.343Z,34.79
2022-11-23T05:49:54.193Z,34.78
2022-11-23T05:52:22.094Z,34.79
2022-11-23T05:54:51.637Z,34.83
2022-11-23T05:57:20.150Z,34.87
2022-11-23T05:59:48.062Z,34.65
2022-11-23T06:02:15.911Z,34.68
2022-11-23T06:04:43.747Z,34.86
2022-11-23T06:07:11.792Z,35.07
2022-11-23T06:09:39.828Z,34.85
2022-11-23T06:12:09.430Z,34.85
2022-11-23T06:14:37.373Z,34.76
2022-11-23T06:17:05.578Z,34.78
2022-11-23T06:19:34.035Z,34.67
2022-11-23T06:22:02.157Z,34.75
2022-11-23T06:24:30.348Z,34.91
2022-11-23T06:26:58.239Z,34.55
2022-11-23T06:29:27.564Z,34.66
2022-11-23T06:31:55.952Z,34.97
2022-11-23T06:34:23.888Z,34.82
2022-11-23T06:36:52.108Z,34.62
2022-11-23T06:39:20.074Z,34.76
2022-11-23T06:41:48.009Z,34.88
2022-11-23T06:44:16.152Z,34.67
2022-11-23T06:46:45.448Z,34.76
2022-11-23T06:49:13.299Z,34.78
2022-11-23T06:51:41.243Z,34.87
2022-11-23T06:54:10.044Z,34.66
2022-11-23T06:56:38.434Z,34.96
2022-11-23T06:59:06.413Z,34.67
2022-11-23T07:01:34.347Z,34.96
2022-11-23T07:04:03.641Z,34.68
2022-11-23T07:06:31.536Z,34.94
2022-11-23T07:08:59.445Z,34.73
2022-11-23T07:11:27.338Z,34.99
2022-11-23T07:13:55.624Z,34.84
2022-11-23T07:16:23.900Z,35.08
2022-11-23T07:18:51.757Z,34.82
2022-11-23T07:21:21.033Z,34.70
2022-11-23T07:23:49.173Z,34.83
2022-11-23T07:26:17.030Z,34.88
2022-11-23T07:28:44.912Z,35.04
2022-11-23T07:31:15.986Z,35.15
2022-11-23T07:33:45.570Z,34.81
2022-11-23T07:36:13.775Z,34.84
2022-11-23T07:38:43.003Z,34.73
2022-11-23T07:41:10.903Z,34.85
2022-11-23T07:43:38.830Z,34.85
2022-11-23T07:46:07.281Z,34.80
2022-11-23T07:48:36.654Z,34.79
2022-11-23T07:51:04.860Z,34.40
2022-11-23T07:53:32.725Z,34.62
2022-11-23T07:56:02.364Z,34.85
2022-11-23T07:58:32.558Z,34.82
2022-11-23T08:01:00.433Z,34.85
2022-11-23T08:03:29.330Z,34.75
2022-11-23T08:05:57.849Z,34.81
2022-11-23T08:08:25.895Z,34.69
2022-11-23T08:10:54.751Z,34.67
2022-11-23T08:13:24.190Z,34.70
2022-11-23T08:15:55.235Z,34.70
2022-11-23T08:18:23.917Z,34.79
2022-11-23T08:20:51.787Z,34.79
2022-11-23T08:23:19.699Z,34.74
2022-11-23T08:25:47.624Z,34.67
2022-11-23T08:28:15.654Z,34.80
2022-11-23T08:30:44.907Z,34.68
2022-11-23T08:33:12.770Z,34.61
2022-11-23T08:35:41.361Z,34.83
2022-11-23T08:38:10.046Z,34.82
2022-11-23T08:40:39.064Z,34.55
2022-11-23T08:43:06.957Z,34.67
2022-11-23T08:45:35.152Z,34.57
2022-11-23T08:48:04.692Z,34.91
2022-11-23T08:50:34.370Z,34.67
2022-11-23T08:53:02.278Z,34.74
2022-11-23T08:55:30.726Z,34.68
2022-11-23T08:57:58.687Z,34.79
2022-11-23T09:00:26.638Z,34.73
2022-11-23T09:02:54.567Z,34.59
2022-11-23T09:05:24.075Z,34.81
2022-11-23T09:07:52.035Z,34.72
2022-11-23T09:10:20.192Z,34.86
2022-11-23T09:12:48.145Z,34.88
2022-11-23T09:15:16.464Z,34.75
2022-11-23T09:17:44.382Z,34.51
2022-11-23T09:20:12.832Z,34.80
2022-11-23T09:22:42.084Z,34.83
2022-11-23T09:25:10.333Z,34.76
2022-11-23T09:27:38.353Z,34.73
2022-11-23T09:30:09.273Z,34.67
2022-11-23T09:32:37.131Z,34.81
2022-11-23T09:35:06.174Z,34.79
2022-11-23T09:37:34.038Z,34.72
2022-11-23T09:40:03.288Z,34.78
2022-11-23T09:42:44.050Z,34.71
2022-11-23T09:45:20.409Z,34.57
2022-11-23T09:48:08.447Z,34.80
2022-11-23T09:50:44.988Z,34.73
2022-11-23T09:53:14.692Z,34.82
2022-11-23T09:55:44.899Z,34.78
2022-11-23T09:58:14.592Z,34.62
2022-11-23T10:00:44.915Z,34.90
2022-11-23T10:03:15.666Z,34.77
2022-11-23T10:05:44.905Z,34.66
2022-11-23T10:08:17.688Z,34.58
2022-11-23T10:10:49.917Z,34.43
2022-11-23T10:13:34.762Z,34.51
2022-11-23T10:16:14.755Z,34.53
2022-11-23T10:18:47.033Z,34.58
2022-11-23T10:21:18.348Z,34.81
2022-11-23T10:24:06.427Z,34.62
2022-11-23T10:26:37.725Z,34.59
2022-11-23T10:29:12.786Z,34.45
2022-11-23T10:31:40.684Z,34.63
2022-11-23T10:34:10.369Z,34.44
2022-11-23T10:36:38.543Z,34.62
2022-11-23T10:39:14.952Z,34.65
2022-11-23T10:41:44.927Z,34.51
2022-11-23T10:44:19.969Z,34.58
2022-11-23T10:46:47.817Z,34.54
2022-11-23T10:49:18.482Z,34.43
2022-11-23T10:51:56.817Z,34.42
2022-11-23T10:54:30.418Z,34.71
2022-11-23T10:57:00.603Z,34.60
2022-11-23T10:59:34.155Z,34.56
2022-11-23T11:02:19.241Z,34.63
2022-11-23T11:04:47.448Z,34.55
2022-11-23T11:07:22.305Z,34.67
2022-11-23T11:09:51.663Z,34.55
2022-11-23T11:12:20.892Z,34.35
2022-11-23T11:15:11.634Z,34.55
2022-11-23T11:17:40.966Z,34.67
2022-11-23T11:20:33.135Z,34.58
2022-11-23T11:23:02.012Z,34.54
2022-11-23T11:25:31.788Z,34.75
2022-11-23T11:28:01.092Z,34.56
2022-11-23T11:30:30.532Z,34.45
2022-11-23T11:33:01.621Z,34.45
2022-11-23T11:35:30.888Z,34.63
2022-11-23T11:38:01.369Z,34.55
2022-11-23T11:40:31.139Z,34.40
2022-11-23T11:43:02.790Z,34.38
2022-11-23T11:45:34.130Z,34.34
2022-11-23T11:48:04.203Z,34.70
2022-11-23T11:50:34.307Z,34.44
2022-11-23T11:53:04.564Z,34.43
2022-11-23T11:55:40.123Z,34.51
2022-11-23T11:58:11.450Z,34.58
2022-11-23T12:00:44.896Z,34.50
2022-11-23T12:03:19.609Z,34.56
2022-11-23T12:05:49.041Z,34.42
2022-11-23T12:08:18.988Z,34.58
2022-11-23T12:10:49.626Z,34.44
2022-11-23T12:13:19.964Z,34.50
2022-11-23T12:15:50.697Z,34.99
2022-11-23T12:18:42.429Z,34.62
2022-11-23T12:21:18.911Z,34.50
2022-11-23T12:23:49.697Z,34.60
2022-11-23T12:26:21.689Z,34.54
2022-11-23T12:28:59.042Z,34.38
2022-11-23T12:31:32.050Z,34.51
2022-11-23T12:34:15.645Z,34.88
2022-11-23T12:36:53.131Z,34.57
2022-11-23T12:39:30.232Z,34.50
2022-11-23T12:41:59.943Z,34.62
2022-11-23T12:44:42.792Z,34.52
2022-11-23T12:47:13.947Z,34.57
2022-11-23T12:49:44.833Z,34.51
2022-11-23T12:52:24.879Z,34.52
2022-11-23T12:54:55.853Z,34.48
2022-11-23T12:57:24.963Z,34.43
2022-11-23T12:59:55.521Z,34.38
2022-11-23T13:03:00.152Z,34.79
2022-11-23T13:05:37.289Z,34.32
2022-11-23T13:08:17.917Z,34.75
2022-11-23T13:10:54.685Z,34.59
2022-11-23T13:13:32.487Z,34.44
2022-11-23T13:16:22.474Z,34.60
2022-11-23T13:19:01.540Z,34.35
2022-11-23T13:21:35.239Z,34.42
2022-11-23T13:24:03.156Z,34.35
2022-11-23T13:26:31.629Z,34.43
2022-11-23T13:29:01.432Z,34.38
2022-11-23T13:31:31.654Z,34.37
2022-11-23T13:34:00.294Z,34.47
2022-11-23T13:40:03.725Z,34.45
2022-11-23T13:42:34.220Z,34.44
2022-11-23T13:45:25.124Z,34.49
2022-11-23T13:51:06.618Z,34.27
2022-11-23T13:53:35.401Z,34.61
2022-11-23T13:56:19.296Z,34.44
2022-11-23T13:58:54.695Z,34.38
2022-11-23T14:01:59.623Z,34.40
2022-11-23T14:04:29.409Z,34.59
2022-11-23T14:06:59.066Z,34.41
2022-11-23T14:09:29.540Z,34.44
2022-11-23T14:12:13.605Z,34.40
2022-11-23T14:14:51.671Z,34.38
2022-11-23T14:17:38.067Z,34.72
2022-11-23T14:20:31.813Z,34.45
2022-11-23T14:23:13.852Z,34.45
2022-11-23T14:25:46.510Z,34.25
2022-11-23T14:28:23.086Z,34.49
2022-11-23T14:30:59.751Z,34.46
2022-11-23T14:33:30.690Z,34.46
2022-11-23T14:36:06.614Z,34.67
2022-11-23T14:38:43.751Z,34.48
2022-11-23T14:41:14.199Z,34.35
2022-11-23T14:43:43.322Z,34.50
2022-11-23T14:46:15.931Z,34.20
2022-11-23T14:48:43.824Z,34.44
2022-11-23T14:51:14.591Z,34.46
2022-11-23T14:53:46.868Z,34.50
2022-11-23T14:56:23.588Z,34.21
2022-11-23T14:58:51.497Z,34.39
2022-11-23T15:01:21.837Z,34.52
2022-11-23T15:03:57.431Z,34.38
2022-11-23T15:06:28.907Z,34.20
2022-11-23T15:09:02.446Z,34.17
2022-11-23T15:11:30.397Z,34.29
2022-11-23T15:14:03.231Z,34.27
2022-11-23T15:16:33.566Z,34.20
2022-11-23T15:19:01.540Z,34.35
2022-11-23T15:21:30.827Z,34.62
2022-11-23T15:24:00.030Z,34.31
2022-11-23T15:26:47.529Z,34.37
2022-11-23T15:29:33.650Z,34.31
2022-11-23T15:34:50.243Z,34.40
2022-11-23T15:37:19.710Z,34.36
2022-11-23T15:39:47.852Z,34.38
2022-11-23T15:42:16.770Z,34.39
2022-11-23T15:44:50.336Z,34.50
2022-11-23T15:47:20.976Z,34.30
2022-11-23T15:49:48.906Z,34.44
2022-11-23T15:52:17.649Z,34.27
2022-11-23T15:54:46.912Z,34.47
2022-11-23T15:57:20.685Z,34.14
2022-11-23T15:59:49.094Z,34.39
2022-11-23T16:02:18.311Z,34.43
2022-11-23T16:04:46.261Z,34.45
2022-11-23T16:07:19.082Z,34.11
2022-11-23T16:09:51.611Z,34.39
2022-11-23T16:12:26.678Z,34.34
2022-11-23T16:14:55.120Z,34.54
2022-11-23T16:17:24.190Z,34.35
2022-11-23T16:19:52.443Z,34.26
2022-11-23T16:22:29.322Z,34.48
2022-11-23T16:25:02.795Z,34.48
2022-11-23T16:27:30.687Z,34.51
2022-11-23T16:30:02.807Z,34.40
2022-11-23T16:32:32.215Z,34.52
2022-11-23T16:35:09.846Z,34.61
2022-11-23T16:37:37.785Z,34.38
2022-11-23T16:40:08.555Z,34.46
2022-11-23T16:42:36.397Z,34.32
2022-11-23T16:45:05.052Z,34.43
2022-11-23T16:47:32.926Z,34.38
2022-11-23T16:50:00.873Z,34.37
2022-11-23T16:52:28.729Z,34.34
2022-11-23T16:54:56.934Z,34.32
2022-11-23T16:57:29.196Z,34.42
2022-11-23T16:59:57.262Z,34.38
2022-11-23T17:02:25.204Z,34.36
2022-11-23T17:04:53.687Z,34.38
2022-11-23T17:07:21.688Z,34.45
2022-11-23T17:09:49.660Z,34.67
2022-11-23T17:12:18.977Z,34.56
2022-11-23T17:14:49.111Z,34.57
2022-11-23T17:17:19.714Z,34.27
2022-11-23T17:19:49.542Z,34.53
2022-11-23T17:22:17.821Z,34.62
2022-11-23T17:24:46.083Z,34.45
2022-11-23T17:27:14.785Z,34.44
2022-11-23T17:29:43.150Z,34.47
2022-11-23T17:32:13.636Z,34.40
2022-11-23T17:34:41.680Z,34.50
2022-11-23T17:37:11.830Z,34.39
2022-11-23T17:39:39.750Z,34.31
2022-11-23T17:42:07.702Z,34.55
2022-11-23T17:44:35.575Z,34.49
2022-11-23T17:47:03.806Z,34.60
2022-11-23T17:49:33.424Z,34.60
2022-11-23T17:52:01.557Z,34.51
2022-11-23T17:54:29.420Z,34.37
2022-11-23T17:56:57.775Z,34.51
2022-11-23T17:59:25.720Z,34.37
2022-11-23T18:01:53.653Z,34.48
2022-11-23T18:04:21.575Z,34.43
2022-11-23T18:06:51.120Z,34.45
2022-11-23T18:09:19.035Z,34.55
2022-11-23T18:11:46.872Z,34.65
2022-11-23T18:14:14.726Z,34.42
2022-11-23T18:16:42.999Z,34.48
2022-11-23T18:19:10.949Z,34.39
2022-11-23T18:21:39.054Z,34.49
2022-11-23T18:24:09.278Z,34.49
2022-11-23T18:26:37.238Z,34.58
2022-11-23T18:29:05.063Z,34.52
2022-11-23T18:31:33.022Z,34.55
2022-11-23T18:34:02.749Z,34.63
2022-11-23T18:36:30.619Z,34.43
2022-11-23T18:38:58.819Z,34.51
2022-11-23T18:41:28.135Z,34.68
2022-11-23T18:43:56.037Z,34.69
2022-11-23T18:46:24.306Z,34.39
2022-11-23T18:48:53.495Z,34.76
2022-11-23T18:51:21.579Z,34.50
2022-11-23T18:53:50.982Z,34.75
2022-11-23T18:56:19.319Z,34.69
2022-11-23T18:58:48.691Z,34.67
2022-11-23T19:01:17.771Z,34.55
2022-11-23T19:03:46.158Z,34.52
2022-11-23T19:06:14.369Z,34.61
2022-11-23T19:08:42.603Z,34.62
2022-11-23T19:11:15.831Z,34.82
2022-11-23T19:13:43.732Z,34.55
2022-11-23T19:16:16.060Z,34.70
2022-11-23T19:18:44.156Z,34.50
2022-11-23T19:21:16.309Z,34.41
2022-11-23T19:23:44.237Z,34.59
2022-11-23T19:26:12.218Z,34.51
2022-11-23T19:28:44.552Z,34.57
2022-11-23T19:31:14.648Z,34.58
2022-11-23T19:33:43.131Z,34.73
2022-11-23T19:36:12.125Z,34.62
2022-11-23T19:38:40.014Z,34.46
2022-11-23T19:41:07.913Z,34.67
2022-11-23T19:43:35.797Z,34.80
2022-11-23T19:46:04.858Z,34.63
2022-11-23T19:48:34.560Z,34.38
2022-11-23T19:51:03.608Z,34.85
2022-11-23T19:53:31.622Z,34.58
2022-11-23T19:56:03.587Z,34.47
2022-11-23T19:58:32.379Z,34.63
2022-11-23T20:01:01.102Z,34.63
2022-11-23T20:03:29.023Z,34.43
2022-11-23T20:05:59.521Z,34.60
2022-11-23T20:08:28.052Z,34.55
2022-11-23T20:10:56.096Z,34.75
2022-11-23T20:13:23.981Z,34.58
2022-11-23T20:15:52.924Z,34.74
2022-11-23T20:18:23.462Z,34.61
2022-11-23T20:20:55.689Z,34.55
2022-11-23T20:23:25.034Z,34.77
2022-11-23T20:25:54.346Z,34.44
2022-11-23T20:28:22.450Z,34.50
2022-11-23T20:30:50.957Z,34.74
2022-11-23T20:33:19.514Z,34.80
2022-11-23T20:35:47.775Z,34.66
2022-11-23T20:38:17.424Z,34.60
2022-11-23T20:40:46.697Z,34.50
2022-11-23T20:43:14.564Z,34.52
2022-11-23T20:45:42.714Z,34.85
2022-11-23T20:48:10.730Z,34.49
2022-11-23T20:50:38.623Z,34.72
2022-11-23T20:53:06.509Z,34.55
2022-11-23T20:55:34.716Z,34.51
2022-11-23T20:58:04.053Z,34.64
2022-11-23T21:00:32.084Z,34.64
2022-11-23T21:03:00.122Z,34.56
2022-11-23T21:05:28.656Z,34.57
2022-11-23T21:07:56.905Z,34.87
2022-11-23T21:10:42.398Z,34.38
2022-11-23T21:13:48.586Z,34.19
2022-11-23T21:16:17.342Z,34.63
2022-11-23T21:18:45.328Z,34.58
2022-11-23T21:21:13.341Z,34.64
2022-11-23T21:23:41.282Z,34.58
2022-11-23T21:26:09.449Z,34.63
2022-11-23T21:28:38.730Z,34.59
2022-11-23T21:31:08.764Z,34.40
2022-11-23T21:33:37.299Z,34.44
2022-11-23T21:36:06.261Z,34.55
2022-11-23T21:38:35.133Z,34.62
2022-11-23T21:41:03.305Z,34.66
2022-11-23T21:43:31.644Z,34.61
2022-11-23T21:46:01.845Z,34.57
2022-11-23T21:48:29.730Z,34.49
2022-11-23T21:51:01.575Z,34.55
2022-11-23T21:53:29.969Z,34.67
2022-11-23T21:56:01.716Z,34.67
2022-11-23T21:58:29.734Z,34.56
2022-11-23T22:01:05.582Z,34.63
2022-11-23T22:03:36.655Z,34.64
2022-11-23T22:06:04.814Z,34.53
2022-11-23T22:08:32.924Z,34.79
2022-11-23T22:11:01.014Z,34.56
2022-11-23T22:13:34.000Z,34.73
2022-11-23T22:16:17.373Z,34.56
2022-11-23T22:18:45.501Z,34.51
2022-11-23T22:21:13.453Z,34.49
2022-11-23T22:23:41.503Z,34.68
2022-11-23T22:26:10.470Z,34.69
2022-11-23T22:28:39.134Z,34.52
2022-11-23T22:31:07.468Z,34.46
2022-11-23T22:33:36.897Z,34.44
2022-11-23T22:36:06.198Z,34.59
2022-11-23T22:38:34.255Z,34.47
2022-11-23T22:41:02.351Z,34.46
2022-11-23T22:43:30.569Z,34.39
2022-11-23T22:46:05.400Z,34.91
2022-11-23T22:48:33.853Z,34.53
2022-11-23T22:51:03.247Z,34.68
2022-11-23T22:53:31.245Z,34.43
2022-11-23T22:56:01.141Z,34.32
2022-11-23T22:58:29.209Z,34.57
2022-11-23T23:00:57.500Z,34.56
2022-11-23T23:03:25.522Z,34.59
2022-11-23T23:05:57.277Z,34.50
2022-11-23T23:08:27.106Z,34.45
2022-11-23T23:10:55.169Z,34.67
2022-11-23T23:13:23.288Z,34.57
2022-11-23T23:16:00.676Z,34.27
2022-11-23T23:18:28.744Z,34.53
2022-11-23T23:21:01.992Z,34.55
2022-11-23T23:23:31.527Z,34.56
2022-11-23T23:25:59.576Z,34.31
2022-11-23T23:28:27.568Z,34.17
2022-11-23T23:31:00.853Z,34.46
2022-11-23T23:33:29.710Z,34.47
2022-11-23T23:35:57.996Z,34.64
2022-11-23T23:38:27.968Z,34.50
2022-11-23T23:40:57.591Z,34.39
2022-11-23T23:43:25.635Z,34.45
2022-11-23T23:45:54.492Z,34.44
2022-11-23T23:48:22.495Z,34.42
2022-11-23T23:50:50.582Z,34.67
2022-11-23T23:53:18.586Z,34.46
2022-11-23T23:55:58.243Z,34.42
2022-11-23T23:58:26.327Z,34.34
